METAR Data
IDs: Format: Raw Decoded Include TAF

Data at: 0608 UTC 19 Aug 2019

KBTV 190554Z AUTO 18009KT 10SM CLR 23/19 A2988 RMK AO2 SLP116 T02280194 10256 20228 55007
KBTV 190454Z AUTO 18008G15KT 10SM CLR 23/19 A2987 RMK AO2 SLP112 T02330194 402890178
KBTV 190354Z 18010KT 10SM OVC090 24/19 A2989 RMK AO2 SLP119 LAST T02390194
KBTV 190254Z 17006KT 10SM SCT060 BKN080 OVC090 24/18 A2990 RMK AO2 SLP124 T02390183 58001
KBTV 190154Z 00000KT 10SM FEW047 BKN060 OVC075 24/18 A2991 RMK AO2 SLP127 T02440178
KBTV 190054Z 12003KT 10SM BKN070 BKN200 25/17 A2991 RMK AO2 SLP126 T02500172
KBTV 182354Z 11004KT 10SM SCT070 BKN200 26/17 A2990 RMK AO2 SLP125 T02560172 10289 20256 56015
KBTV 182254Z 17005KT 10SM SCT080 BKN200 27/18 A2993 RMK AO2 SLP133 T02670183
KBTV 182154Z 16006KT 10SM SCT080 BKN200 27/18 A2992 RMK AO2 SLP132 T02720178
KBTV 182054Z 19009KT 10SM OVC085 28/17 A2995 RMK AO2 SLP140 T02830172 56013
KBTV 181954Z 19011KT 10SM SCT220 BKN250 28/18 A2995 RMK AO2 SLP141 T02830178
KBTV 181854Z 19009KT 10SM FEW040 BKN250 28/19 A2997 RMK AO2 SLP147 T02780189
KBTV 181754Z 20007G15KT 10SM FEW023 FEW055 FEW085 27/19 A2999 RMK AO2 SLP153 T02720189 10272 20194 55012
KBTV 181654Z 20006KT 10SM FEW045 SCT250 26/19 A2998 RMK AO2 SLP150 T02560189
KBTV 181617Z 18008KT 10SM SCT016 SCT045 SCT240 25/19 A2998 RMK AO2 T02500189
KBTV 181554Z 21008KT 10SM BKN017 BKN044 BKN180 24/18 A3000 RMK AO2 SLP157 T02390183
KBTV 181454Z 21008KT 10SM BKN015 BKN044 24/18 A3002 RMK AO2 SLP165 T02390183 51002
KBTV 181449Z 21008G16KT 10SM BKN015 BKN044 23/18 A3002 RMK AO2
KBTV 181354Z 20007KT 10SM BKN012 BKN160 22/18 A3002 RMK AO2 SLP164 T02220178
KBTV 181347Z 19006KT 10SM BKN012 BKN160 23/18 A3002 RMK AO2 T02280183
KBTV 181254Z 17006KT 10SM SCT010 SCT026 BKN200 21/18 A3002 RMK AO2 SLP163 T02060178 $
KBTV 181252Z 16007KT 10SM SCT010 SCT026 BKN200 21/18 A3001 RMK AO2 $
KBTV 181207Z 19005KT 10SM FEW008 SCT014 BKN027 19/17 A3002 RMK AO2 T01940172 $
KBTV 181154Z COR 17005KT 10SM SCT008 BKN014 BKN027 19/18 A3002 RMK AO2 SLP164 70018 T01940178 10194 20178 51010 $
KBTV 181152Z 18005KT 10SM SCT009 BKN014 BKN028 19/18 A3002 RMK AO2 $
KBTV 181139Z 17005KT 10SM FEW009 SCT012 BKN029 19/18 A3001 RMK AO2 T01940178 $
KBTV 181136Z 16004KT 10SM SCT012 BKN029 19/18 A3002 RMK AO2 T01940178 $
KBTV 181054Z 00000KT 10SM FEW016 FEW200 18/17 A3000 RMK AO2 SLP157 T01830167 $
KBTV 181006Z 15004KT 10SM SCT013 18/17 A2999 RMK AO2 T01780167 $
KBTV 180954Z 00000KT 10SM BKN013 18/17 A2999 RMK AO2 SLP153 T01780167 $
KBTV 180937Z 00000KT 10SM BKN013 18/17 A2999 RMK AO2 T01830167 $
KBTV 180854Z AUTO 18003KT 10SM FEW013 18/17 A2999 RMK AO2 SLP155 T01830172 53004 $
KBTV 180754Z AUTO 22006KT 10SM FEW008 19/17 A2998 RMK AO2 SLP152 T01890172 $
KBTV 180751Z AUTO 22006KT 10SM SCT008 19/17 A2998 RMK AO2 $
KBTV 180701Z AUTO 19005KT 10SM BKN008 19/17 A2998 RMK AO2 T01940172 $
KBTV 180654Z AUTO 19006KT 10SM SCT009 19/17 A2998 RMK AO2 SLP151 T01940172 $
KBTV 180652Z AUTO 20005KT 10SM SCT009 19/17 A2998 RMK AO2 $
KBTV 180554Z AUTO 20006KT 10SM CLR 19/17 A2997 RMK AO2 SLP149 T01940172 10206 20189 52002 $
KBTV 180454Z AUTO 18004KT 10SM SCT055 19/17 A2998 RMK AO2 SLP150 T01890172 402940189 $
KBTV 180354Z 00000KT 10SM SCT055 19/18 A2996 RMK AO2 SLP145 /LAST/ T01940178 $
KBTV 180254Z 00000KT 10SM CLR 19/18 A2997 RMK AO2 SLP146 T01940178 51012 $
KBTV 180154Z 18003KT 10SM BKN095 20/18 A2997 RMK AO2 SLP146 T02000183 $
KBTV 180054Z 13006KT 10SM BKN150 21/19 A2995 RMK AO2 SLP140 T02060189 $
KBTV 172354Z 20004KT 10SM FEW090 BKN110 21/18 A2993 RMK AO2 RAE47 SLP134 P0003 60018 T02060183 10294 20206 50003 $
KBTV 172254Z 19007KT 8SM -RA FEW090 OVC110 21/18 A2995 RMK AO2 LTG DSNT SE TSE40 SLP141 P0013 T02110183 $
KBTV 172246Z 20007KT 5SM RA BR BKN100 OVC120 22/19 A2995 RMK AO2 LTG DSNT SE TSE40 P0012 T02170194 $
KBTV 172207Z 21007KT 4SM TSRA BR FEW035CB BKN080 OVC100 24/21 A2995 RMK AO2 LTG DSNT S AND SW OCNL LTGICCG SW TS S-SW MOV N-NE P0003 T02440206 $
KBTV 172154Z 21007KT 6SM -TSRA BR FEW035CB BKN080 OVC110 25/21 A2995 RMK AO2 LTG DSNT S AND SW RAB20 TSB46 SLP140 TS S-SW MOV N-NE P0002 T02500211 $
KBTV 172147Z 21006KT 6SM -TSRA BR FEW035CB OVC080 26/21 A2995 RMK AO2 LTG DSNT S AND SW RAB20 TSB46 TS SW MOV NE P0001 T02560211 $
KBTV 172146Z 21006KT 6SM -TSRA BR FEW035 BKN080 OVC110 26/21 A2995 RMK AO2 LTG DSNT S AND SW RAB20 TSB46 TS SW MOV NE P0001 T02560211 $
KBTV 172054Z 18007KT 10SM FEW037 BKN080 OVC100 28/19 A2992 RMK AO2 LTG DSNT NE SLP130 T02780194 56015 $
KBTV 171954Z 18008KT 10SM FEW037 BKN075 OVC100 28/19 A2993 RMK AO2 SLP134 T02830194 $
KBTV 171854Z 18010KT 10SM FEW037 BKN080 OVC150 28/19 A2995 RMK AO2 SLP139 T02830189 $